Ocean Happy — VRFK7 — position and weather

sailwx.info

Track history (hours):
 
Tides and Currents Weather Stations Pressure Air Temp Water Temp Dewpoint Dewpoint Depression Visibility Wind Speed Wind Dir Waves Ship Positions

Ocean Happy

Last reported at 2018-Aug-10 23:29 UTC. Time now 2018-Aug-21 04:20 UTC.
Position N 37°24' E 123°13'.
Warning: this ship's position is 10 days out of date.

Length 230 m; draft 8.2 m.

Type: Cargo ship. MMSI: 477691500.

Date/timePositionNaut miles runAvg speedWind from/ knotsBaromVisibWave heightAir tempDewpointWater temp
2018-Aug-10 23:29N 37°24' E 123°13'2311.8
2018-Aug-10 21:33N 37°38' E 122°51'112.3
2018-Aug-10 21:27N 37°39' E 122°50'512.1
2018-Aug-10 21:00N 37°40' E 122°43'612.2
2018-Aug-10 20:30N 37°42' E 122°36'612.5
2018-Aug-10 19:59N 37°43' E 122°28'612.8
2018-Aug-10 19:30N 37°44' E 122°20'713.3
2018-Aug-10 19:00N 37°46' E 122°12'713.5
2018-Aug-10 18:29N 37°47' E 122°03'713.8
2018-Aug-10 18:00N 37°49' E 121°55'713.6
2018-Aug-10 17:30N 37°50' E 121°47'713.7
2018-Aug-10 16:58N 37°52' E 121°38'613.5
2018-Aug-10 16:30N 37°53' E 121°30'713.4
2018-Aug-10 16:00N 37°54' E 121°22'713.4
2018-Aug-10 15:30N 37°56' E 121°13'713.5
2018-Aug-10 15:00N 37°56' E 121°05'713.3
2018-Aug-10 14:30N 37°58' E 120°57'713.3
2018-Aug-10 14:00N 37°59' E 120°48'713.4
2018-Aug-10 13:30N 38°01' E 120°40'713.2
2018-Aug-10 13:00N 38°01' E 120°32'713.1
2018-Aug-10 12:27N 38°02' E 120°23'612.8
2018-Aug-10 12:00N 37°57' E 120°18'713.0
2018-Aug-10 11:30N 37°52' E 120°13'612.3
2018-Aug-10 11:00N 37°46' E 120°11'611.3
2018-Aug-10 10:30N 37°41' E 120°13'5 8.8
2018-Aug-10 09:56N 37°39' E 120°18'0 0.0
2018-Aug-10 00:53N 37°39' E 120°18'  
2018-Aug-06 08:43N 37°44' E 120°11'  
Track history (hours):
 
Tides and Currents Weather Stations Pressure Air Temp Water Temp Dewpoint Dewpoint Depression Visibility Wind Speed Wind Dir Waves Ship Positions

Ocean Happy

Last reported at 2018-Aug-10 23:29 UTC. Time now 2018-Aug-21 04:20 UTC.
Position N 37°24' E 123°13'.
Warning: this ship's position is 10 days out of date.

Length 230 m; draft 8.2 m.

Type: Cargo ship. MMSI: 477691500.

Date/timePositionNaut miles runAvg speedWind from/ knotsBaromVisibWave heightAir tempDewpointWater temp
2018-Aug-10 23:29N 37°24' E 123°13'2311.8
2018-Aug-10 21:33N 37°38' E 122°51'112.3
2018-Aug-10 21:27N 37°39' E 122°50'512.1
2018-Aug-10 21:00N 37°40' E 122°43'612.2
2018-Aug-10 20:30N 37°42' E 122°36'612.5
2018-Aug-10 19:59N 37°43' E 122°28'612.8
2018-Aug-10 19:30N 37°44' E 122°20'713.3
2018-Aug-10 19:00N 37°46' E 122°12'713.5
2018-Aug-10 18:29N 37°47' E 122°03'713.8
2018-Aug-10 18:00N 37°49' E 121°55'713.6
2018-Aug-10 17:30N 37°50' E 121°47'713.7
2018-Aug-10 16:58N 37°52' E 121°38'613.5
2018-Aug-10 16:30N 37°53' E 121°30'713.4
2018-Aug-10 16:00N 37°54' E 121°22'713.4
2018-Aug-10 15:30N 37°56' E 121°13'713.5
2018-Aug-10 15:00N 37°56' E 121°05'713.3
2018-Aug-10 14:30N 37°58' E 120°57'713.3
2018-Aug-10 14:00N 37°59' E 120°48'713.4
2018-Aug-10 13:30N 38°01' E 120°40'713.2
2018-Aug-10 13:00N 38°01' E 120°32'713.1
2018-Aug-10 12:27N 38°02' E 120°23'612.8
2018-Aug-10 12:00N 37°57' E 120°18'713.0
2018-Aug-10 11:30N 37°52' E 120°13'612.3
2018-Aug-10 11:00N 37°46' E 120°11'611.3
2018-Aug-10 10:30N 37°41' E 120°13'5 8.8
2018-Aug-10 09:56N 37°39' E 120°18'0 0.0
2018-Aug-10 00:53N 37°39' E 120°18'  
2018-Aug-06 08:43N 37°44' E 120°11'  

Dump ship's entire track history